sensor_id;sensor_type;location;lat;lon;timestamp;P1;durP1;ratioP1;P2;durP2;ratioP2
19396;SDS011;9834;48.076;11.878;2023-02-01T00:01:28;1.87;;;1.73;;
19396;SDS011;9834;48.076;11.878;2023-02-01T00:03:55;3.07;;;2.00;;
19396;SDS011;9834;48.076;11.878;2023-02-01T00:06:24;2.83;;;1.60;;
19396;SDS011;9834;48.076;11.878;2023-02-01T00:08:52;1.87;;;1.77;;
19396;SDS011;9834;48.076;11.878;2023-02-01T00:11:20;1.47;;;1.30;;
19396;SDS011;9834;48.076;11.878;2023-02-01T00:13:48;4.37;;;1.57;;
19396;SDS011;9834;48.076;11.878;2023-02-01T00:16:17;2.00;;;1.30;;
19396;SDS011;9834;48.076;11.878;2023-02-01T00:18:46;1.70;;;1.60;;
19396;SDS011;9834;48.076;11.878;2023-02-01T00:21:14;1.90;;;1.70;;
19396;SDS011;9834;48.076;11.878;2023-02-01T00:23:45;2.53;;;1.70;;
19396;SDS011;9834;48.076;11.878;2023-02-01T00:26:14;1.47;;;1.27;;
19396;SDS011;9834;48.076;11.878;2023-02-01T00:28:42;2.27;;;1.70;;
19396;SDS011;9834;48.076;11.878;2023-02-01T00:31:10;1.40;;;1.30;;
19396;SDS011;9834;48.076;11.878;2023-02-01T00:33:37;1.30;;;1.20;;
19396;SDS011;9834;48.076;11.878;2023-02-01T00:36:05;2.37;;;1.40;;
19396;SDS011;9834;48.076;11.878;2023-02-01T00:38:35;2.00;;;1.30;;
19396;SDS011;9834;48.076;11.878;2023-02-01T00:41:05;1.40;;;1.23;;
19396;SDS011;9834;48.076;11.878;2023-02-01T00:43:34;2.10;;;1.57;;
19396;SDS011;9834;48.076;11.878;2023-02-01T00:46:01;1.77;;;1.57;;
19396;SDS011;9834;48.076;11.878;2023-02-01T00:48:29;4.50;;;1.30;;
19396;SDS011;9834;48.076;11.878;2023-02-01T00:50:58;1.20;;;1.10;;
19396;SDS011;9834;48.076;11.878;2023-02-01T00:53:26;2.03;;;1.50;;
19396;SDS011;9834;48.076;11.878;2023-02-01T00:55:53;3.37;;;1.67;;
19396;SDS011;9834;48.076;11.878;2023-02-01T00:58:22;2.63;;;1.57;;
19396;SDS011;9834;48.076;11.878;2023-02-01T01:00:59;1.87;;;1.60;;
19396;SDS011;9834;48.076;11.878;2023-02-01T01:03:28;2.40;;;1.40;;
19396;SDS011;9834;48.076;11.878;2023-02-01T01:05:58;2.40;;;1.50;;
19396;SDS011;9834;48.076;11.878;2023-02-01T01:08:27;2.40;;;1.13;;
19396;SDS011;9834;48.076;11.878;2023-02-01T01:10:55;1.83;;;1.03;;
19396;SDS011;9834;48.076;11.878;2023-02-01T01:13:24;4.03;;;1.90;;
19396;SDS011;9834;48.076;11.878;2023-02-01T01:15:51;4.70;;;1.60;;
19396;SDS011;9834;48.076;11.878;2023-02-01T01:18:18;2.87;;;1.83;;
19396;SDS011;9834;48.076;11.878;2023-02-01T01:20:45;1.63;;;1.43;;
19396;SDS011;9834;48.076;11.878;2023-02-01T01:23:13;1.90;;;1.60;;
19396;SDS011;9834;48.076;11.878;2023-02-01T01:25:40;4.67;;;1.90;;
19396;SDS011;9834;48.076;11.878;2023-02-01T01:28:08;1.73;;;1.50;;
19396;SDS011;9834;48.076;11.878;2023-02-01T01:30:36;2.10;;;1.43;;
19396;SDS011;9834;48.076;11.878;2023-02-01T01:33:03;2.40;;;1.60;;
19396;SDS011;9834;48.076;11.878;2023-02-01T01:35:30;2.50;;;1.83;;
19396;SDS011;9834;48.076;11.878;2023-02-01T01:38:00;1.83;;;1.70;;
19396;SDS011;9834;48.076;11.878;2023-02-01T01:42:56;2.10;;;1.57;;
19396;SDS011;9834;48.076;11.878;2023-02-01T01:45:25;3.53;;;1.70;;
19396;SDS011;9834;48.076;11.878;2023-02-01T01:47:55;4.73;;;2.17;;
19396;SDS011;9834;48.076;11.878;2023-02-01T01:50:25;2.87;;;1.90;;
19396;SDS011;9834;48.076;11.878;2023-02-01T01:52:57;4.10;;;2.33;;
19396;SDS011;9834;48.076;11.878;2023-02-01T01:55:27;3.10;;;2.03;;
19396;SDS011;9834;48.076;11.878;2023-02-01T01:57:59;2.70;;;1.97;;
19396;SDS011;9834;48.076;11.878;2023-02-01T02:00:31;4.50;;;2.20;;
19396;SDS011;9834;48.076;11.878;2023-02-01T02:03:03;2.47;;;2.23;;
19396;SDS011;9834;48.076;11.878;2023-02-01T02:05:35;2.90;;;2.23;;
19396;SDS011;9834;48.076;11.878;2023-02-01T02:08:02;2.60;;;1.90;;
19396;SDS011;9834;48.076;11.878;2023-02-01T02:10:30;3.00;;;1.90;;
19396;SDS011;9834;48.076;11.878;2023-02-01T02:13:11;3.53;;;2.17;;
19396;SDS011;9834;48.076;11.878;2023-02-01T02:15:42;3.93;;;2.60;;
19396;SDS011;9834;48.076;11.878;2023-02-01T02:18:15;5.10;;;2.97;;
19396;SDS011;9834;48.076;11.878;2023-02-01T02:20:59;2.50;;;1.97;;
19396;SDS011;9834;48.076;11.878;2023-02-01T02:23:41;2.57;;;2.37;;
19396;SDS011;9834;48.076;11.878;2023-02-01T02:26:32;2.37;;;2.07;;
19396;SDS011;9834;48.076;11.878;2023-02-01T02:29:14;4.80;;;2.47;;
19396;SDS011;9834;48.076;11.878;2023-02-01T02:35:16;4.37;;;2.93;;
19396;SDS011;9834;48.076;11.878;2023-02-01T02:37:54;3.47;;;2.83;;
19396;SDS011;9834;48.076;11.878;2023-02-01T02:40:28;4.00;;;2.60;;
19396;SDS011;9834;48.076;11.878;2023-02-01T02:43:02;3.10;;;2.40;;
19396;SDS011;9834;48.076;11.878;2023-02-01T02:45:54;7.60;;;3.50;;
19396;SDS011;9834;48.076;11.878;2023-02-01T02:48:46;4.73;;;2.30;;
19396;SDS011;9834;48.076;11.878;2023-02-01T02:51:20;5.37;;;2.33;;
19396;SDS011;9834;48.076;11.878;2023-02-01T02:54:10;3.77;;;2.37;;
19396;SDS011;9834;48.076;11.878;2023-02-01T02:56:57;4.13;;;2.53;;
19396;SDS011;9834;48.076;11.878;2023-02-01T02:59:44;6.13;;;2.03;;
19396;SDS011;9834;48.076;11.878;2023-02-01T03:02:29;3.60;;;2.43;;
19396;SDS011;9834;48.076;11.878;2023-02-01T03:05:14;5.90;;;1.77;;
19396;SDS011;9834;48.076;11.878;2023-02-01T03:10:40;3.80;;;2.57;;
19396;SDS011;9834;48.076;11.878;2023-02-01T03:13:18;3.97;;;2.60;;
19396;SDS011;9834;48.076;11.878;2023-02-01T03:15:54;1.93;;;1.83;;
19396;SDS011;9834;48.076;11.878;2023-02-01T03:18:29;1.90;;;1.80;;
19396;SDS011;9834;48.076;11.878;2023-02-01T03:21:04;2.83;;;2.23;;
19396;SDS011;9834;48.076;11.878;2023-02-01T03:23:36;3.53;;;2.90;;
19396;SDS011;9834;48.076;11.878;2023-02-01T03:26:04;2.63;;;2.07;;
19396;SDS011;9834;48.076;11.878;2023-02-01T03:28:35;3.17;;;2.57;;
19396;SDS011;9834;48.076;11.878;2023-02-01T03:31:08;2.77;;;2.53;;
19396;SDS011;9834;48.076;11.878;2023-02-01T03:33:35;3.13;;;2.07;;
19396;SDS011;9834;48.076;11.878;2023-02-01T03:36:05;5.67;;;2.33;;
19396;SDS011;9834;48.076;11.878;2023-02-01T03:38:42;2.07;;;1.67;;
19396;SDS011;9834;48.076;11.878;2023-02-01T03:41:17;2.40;;;1.67;;
19396;SDS011;9834;48.076;11.878;2023-02-01T03:43:52;3.43;;;2.40;;
19396;SDS011;9834;48.076;11.878;2023-02-01T03:46:24;2.33;;;2.07;;
19396;SDS011;9834;48.076;11.878;2023-02-01T03:48:58;2.57;;;1.90;;
19396;SDS011;9834;48.076;11.878;2023-02-01T03:51:29;2.57;;;2.37;;
19396;SDS011;9834;48.076;11.878;2023-02-01T03:53:59;2.40;;;2.13;;
19396;SDS011;9834;48.076;11.878;2023-02-01T03:56:29;2.50;;;1.77;;
19396;SDS011;9834;48.076;11.878;2023-02-01T03:58:57;3.90;;;2.00;;
19396;SDS011;9834;48.076;11.878;2023-02-01T04:01:25;3.37;;;2.17;;
19396;SDS011;9834;48.076;11.878;2023-02-01T04:03:54;1.93;;;1.80;;
19396;SDS011;9834;48.076;11.878;2023-02-01T04:06:21;2.83;;;2.10;;
19396;SDS011;9834;48.076;11.878;2023-02-01T04:08:49;2.37;;;2.10;;
19396;SDS011;9834;48.076;11.878;2023-02-01T04:11:20;2.97;;;1.90;;
19396;SDS011;9834;48.076;11.878;2023-02-01T04:13:47;3.83;;;2.03;;
19396;SDS011;9834;48.076;11.878;2023-02-01T04:16:14;2.60;;;1.90;;
19396;SDS011;9834;48.076;11.878;2023-02-01T04:18:41;1.30;;;1.20;;
19396;SDS011;9834;48.076;11.878;2023-02-01T04:21:08;2.93;;;1.87;;
19396;SDS011;9834;48.076;11.878;2023-02-01T04:23:36;2.27;;;1.47;;
19396;SDS011;9834;48.076;11.878;2023-02-01T04:26:04;4.23;;;2.33;;
19396;SDS011;9834;48.076;11.878;2023-02-01T04:28:33;2.00;;;1.83;;
19396;SDS011;9834;48.076;11.878;2023-02-01T04:31:00;2.93;;;1.73;;
19396;SDS011;9834;48.076;11.878;2023-02-01T04:33:26;3.60;;;1.70;;
19396;SDS011;9834;48.076;11.878;2023-02-01T04:35:54;1.83;;;1.67;;
19396;SDS011;9834;48.076;11.878;2023-02-01T04:38:20;2.37;;;1.97;;
19396;SDS011;9834;48.076;11.878;2023-02-01T04:40:47;3.30;;;1.80;;
19396;SDS011;9834;48.076;11.878;2023-02-01T04:43:15;3.33;;;2.20;;
19396;SDS011;9834;48.076;11.878;2023-02-01T04:45:47;3.50;;;1.90;;
19396;SDS011;9834;48.076;11.878;2023-02-01T04:48:15;3.27;;;1.83;;
19396;SDS011;9834;48.076;11.878;2023-02-01T04:50:42;3.00;;;2.07;;
19396;SDS011;9834;48.076;11.878;2023-02-01T04:53:12;2.40;;;1.93;;
19396;SDS011;9834;48.076;11.878;2023-02-01T04:55:39;2.33;;;2.00;;
19396;SDS011;9834;48.076;11.878;2023-02-01T04:58:06;2.50;;;1.93;;
19396;SDS011;9834;48.076;11.878;2023-02-01T05:00:33;2.40;;;1.90;;
19396;SDS011;9834;48.076;11.878;2023-02-01T05:03:02;2.67;;;2.00;;
19396;SDS011;9834;48.076;11.878;2023-02-01T05:05:29;3.80;;;2.30;;
19396;SDS011;9834;48.076;11.878;2023-02-01T05:07:55;6.00;;;2.27;;
19396;SDS011;9834;48.076;11.878;2023-02-01T05:10:22;3.07;;;1.93;;
19396;SDS011;9834;48.076;11.878;2023-02-01T05:12:49;4.07;;;2.27;;
19396;SDS011;9834;48.076;11.878;2023-02-01T05:15:34;3.80;;;1.87;;
19396;SDS011;9834;48.076;11.878;2023-02-01T05:18:02;3.17;;;1.70;;
19396;SDS011;9834;48.076;11.878;2023-02-01T05:20:29;2.30;;;1.93;;
19396;SDS011;9834;48.076;11.878;2023-02-01T05:22:56;2.67;;;1.83;;
19396;SDS011;9834;48.076;11.878;2023-02-01T05:25:23;4.87;;;2.43;;
19396;SDS011;9834;48.076;11.878;2023-02-01T05:27:50;2.70;;;2.40;;
19396;SDS011;9834;48.076;11.878;2023-02-01T05:30:17;1.90;;;1.60;;
19396;SDS011;9834;48.076;11.878;2023-02-01T05:32:44;3.50;;;2.37;;
19396;SDS011;9834;48.076;11.878;2023-02-01T05:35:12;2.30;;;2.10;;
19396;SDS011;9834;48.076;11.878;2023-02-01T05:37:39;2.47;;;2.20;;
19396;SDS011;9834;48.076;11.878;2023-02-01T05:40:07;3.40;;;2.30;;
19396;SDS011;9834;48.076;11.878;2023-02-01T05:42:35;3.40;;;2.23;;
19396;SDS011;9834;48.076;11.878;2023-02-01T05:45:02;3.13;;;2.23;;
19396;SDS011;9834;48.076;11.878;2023-02-01T05:47:32;1.60;;;1.50;;
19396;SDS011;9834;48.076;11.878;2023-02-01T05:49:59;2.43;;;2.23;;
19396;SDS011;9834;48.076;11.878;2023-02-01T05:52:28;4.83;;;2.50;;
19396;SDS011;9834;48.076;11.878;2023-02-01T05:54:55;2.57;;;2.37;;
19396;SDS011;9834;48.076;11.878;2023-02-01T05:57:22;2.43;;;2.17;;
19396;SDS011;9834;48.076;11.878;2023-02-01T05:59:49;2.67;;;2.20;;
19396;SDS011;9834;48.076;11.878;2023-02-01T06:02:16;3.20;;;2.13;;
19396;SDS011;9834;48.076;11.878;2023-02-01T06:04:43;2.93;;;1.70;;
19396;SDS011;9834;48.076;11.878;2023-02-01T06:07:10;5.80;;;2.70;;
19396;SDS011;9834;48.076;11.878;2023-02-01T06:09:38;5.20;;;3.23;;
19396;SDS011;9834;48.076;11.878;2023-02-01T06:12:05;2.70;;;2.33;;
19396;SDS011;9834;48.076;11.878;2023-02-01T06:14:33;6.07;;;2.40;;
19396;SDS011;9834;48.076;11.878;2023-02-01T06:17:00;2.83;;;2.17;;
19396;SDS011;9834;48.076;11.878;2023-02-01T06:19:27;5.40;;;2.33;;
19396;SDS011;9834;48.076;11.878;2023-02-01T06:21:55;2.07;;;1.87;;
19396;SDS011;9834;48.076;11.878;2023-02-01T06:24:22;3.83;;;2.27;;
19396;SDS011;9834;48.076;11.878;2023-02-01T06:26:50;5.30;;;2.67;;
19396;SDS011;9834;48.076;11.878;2023-02-01T06:29:17;4.87;;;3.03;;
19396;SDS011;9834;48.076;11.878;2023-02-01T06:31:44;3.80;;;2.30;;
19396;SDS011;9834;48.076;11.878;2023-02-01T06:34:11;4.17;;;2.90;;
19396;SDS011;9834;48.076;11.878;2023-02-01T06:36:38;4.37;;;2.97;;
19396;SDS011;9834;48.076;11.878;2023-02-01T06:39:05;4.87;;;2.00;;
19396;SDS011;9834;48.076;11.878;2023-02-01T06:41:32;2.50;;;2.07;;
19396;SDS011;9834;48.076;11.878;2023-02-01T06:44:01;3.07;;;2.27;;
19396;SDS011;9834;48.076;11.878;2023-02-01T06:46:29;2.87;;;2.43;;
19396;SDS011;9834;48.076;11.878;2023-02-01T06:48:56;2.57;;;2.03;;
19396;SDS011;9834;48.076;11.878;2023-02-01T06:51:24;3.30;;;2.50;;
19396;SDS011;9834;48.076;11.878;2023-02-01T06:53:53;3.23;;;2.67;;
19396;SDS011;9834;48.076;11.878;2023-02-01T06:56:20;2.20;;;2.00;;
19396;SDS011;9834;48.076;11.878;2023-02-01T06:58:48;2.87;;;2.47;;
19396;SDS011;9834;48.076;11.878;2023-02-01T07:01:17;5.03;;;2.47;;
19396;SDS011;9834;48.076;11.878;2023-02-01T07:03:46;4.07;;;2.67;;
19396;SDS011;9834;48.076;11.878;2023-02-01T07:06:14;3.43;;;2.40;;
19396;SDS011;9834;48.076;11.878;2023-02-01T07:08:41;6.07;;;3.10;;
19396;SDS011;9834;48.076;11.878;2023-02-01T07:11:09;3.93;;;2.27;;
19396;SDS011;9834;48.076;11.878;2023-02-01T07:13:37;3.87;;;2.43;;
19396;SDS011;9834;48.076;11.878;2023-02-01T07:16:05;4.53;;;2.63;;
19396;SDS011;9834;48.076;11.878;2023-02-01T07:18:36;3.83;;;2.70;;
19396;SDS011;9834;48.076;11.878;2023-02-01T07:21:03;5.90;;;2.30;;
19396;SDS011;9834;48.076;11.878;2023-02-01T07:23:31;2.90;;;2.47;;
19396;SDS011;9834;48.076;11.878;2023-02-01T07:25:58;5.63;;;2.20;;
19396;SDS011;9834;48.076;11.878;2023-02-01T07:28:28;3.23;;;2.10;;
19396;SDS011;9834;48.076;11.878;2023-02-01T07:31:01;1.90;;;1.70;;
19396;SDS011;9834;48.076;11.878;2023-02-01T07:33:28;1.67;;;1.57;;
19396;SDS011;9834;48.076;11.878;2023-02-01T07:35:56;1.53;;;1.43;;
19396;SDS011;9834;48.076;11.878;2023-02-01T07:38:23;3.73;;;2.10;;
19396;SDS011;9834;48.076;11.878;2023-02-01T07:40:56;3.70;;;2.17;;
19396;SDS011;9834;48.076;11.878;2023-02-01T07:43:24;3.70;;;2.30;;
19396;SDS011;9834;48.076;11.878;2023-02-01T07:45:52;3.37;;;2.00;;
19396;SDS011;9834;48.076;11.878;2023-02-01T07:48:20;2.93;;;2.30;;
19396;SDS011;9834;48.076;11.878;2023-02-01T07:50:47;3.90;;;1.83;;
19396;SDS011;9834;48.076;11.878;2023-02-01T07:53:16;2.43;;;1.67;;
19396;SDS011;9834;48.076;11.878;2023-02-01T07:55:43;1.57;;;1.47;;
19396;SDS011;9834;48.076;11.878;2023-02-01T07:58:09;4.13;;;1.57;;
19396;SDS011;9834;48.076;11.878;2023-02-01T08:00:36;3.57;;;2.07;;
19396;SDS011;9834;48.076;11.878;2023-02-01T08:03:21;1.97;;;1.57;;
19396;SDS011;9834;48.076;11.878;2023-02-01T08:05:48;2.47;;;1.90;;
19396;SDS011;9834;48.076;11.878;2023-02-01T08:08:20;3.97;;;1.87;;
19396;SDS011;9834;48.076;11.878;2023-02-01T08:10:48;2.47;;;1.80;;
19396;SDS011;9834;48.076;11.878;2023-02-01T08:13:19;1.93;;;1.40;;
19396;SDS011;9834;48.076;11.878;2023-02-01T08:15:46;4.63;;;1.50;;
19396;SDS011;9834;48.076;11.878;2023-02-01T08:18:13;2.10;;;1.43;;
19396;SDS011;9834;48.076;11.878;2023-02-01T08:20:42;1.80;;;1.63;;
19396;SDS011;9834;48.076;11.878;2023-02-01T08:23:10;2.40;;;1.53;;
19396;SDS011;9834;48.076;11.878;2023-02-01T08:25:38;2.20;;;1.60;;
19396;SDS011;9834;48.076;11.878;2023-02-01T08:28:06;2.03;;;1.77;;
19396;SDS011;9834;48.076;11.878;2023-02-01T08:30:33;2.40;;;1.87;;
19396;SDS011;9834;48.076;11.878;2023-02-01T08:33:02;1.57;;;1.30;;
19396;SDS011;9834;48.076;11.878;2023-02-01T08:35:31;1.57;;;1.47;;
19396;SDS011;9834;48.076;11.878;2023-02-01T08:37:58;1.63;;;1.40;;
19396;SDS011;9834;48.076;11.878;2023-02-01T08:40:25;5.00;;;1.53;;
19396;SDS011;9834;48.076;11.878;2023-02-01T08:42:53;2.10;;;1.60;;
19396;SDS011;9834;48.076;11.878;2023-02-01T08:45:21;2.57;;;2.00;;
19396;SDS011;9834;48.076;11.878;2023-02-01T08:47:49;2.03;;;1.60;;
19396;SDS011;9834;48.076;11.878;2023-02-01T08:50:17;1.43;;;1.33;;
19396;SDS011;9834;48.076;11.878;2023-02-01T08:52:44;3.37;;;1.77;;
19396;SDS011;9834;48.076;11.878;2023-02-01T08:55:12;2.03;;;1.53;;
19396;SDS011;9834;48.076;11.878;2023-02-01T08:57:39;3.43;;;1.80;;
19396;SDS011;9834;48.076;11.878;2023-02-01T09:00:08;1.90;;;1.67;;
19396;SDS011;9834;48.076;11.878;2023-02-01T09:02:38;1.77;;;1.53;;
19396;SDS011;9834;48.076;11.878;2023-02-01T09:05:06;1.43;;;1.30;;
19396;SDS011;9834;48.076;11.878;2023-02-01T09:07:33;2.07;;;1.30;;
19396;SDS011;9834;48.076;11.878;2023-02-01T09:10:01;1.23;;;1.13;;
19396;SDS011;9834;48.076;11.878;2023-02-01T09:12:28;2.97;;;1.37;;
19396;SDS011;9834;48.076;11.878;2023-02-01T09:14:59;2.47;;;1.40;;
19396;SDS011;9834;48.076;11.878;2023-02-01T09:17:28;2.07;;;1.43;;
19396;SDS011;9834;48.076;11.878;2023-02-01T09:19:55;1.90;;;1.43;;
19396;SDS011;9834;48.076;11.878;2023-02-01T09:22:22;1.53;;;1.40;;
19396;SDS011;9834;48.076;11.878;2023-02-01T09:24:49;3.67;;;1.83;;
19396;SDS011;9834;48.076;11.878;2023-02-01T09:27:16;2.47;;;1.40;;
19396;SDS011;9834;48.076;11.878;2023-02-01T09:29:43;1.63;;;1.50;;
19396;SDS011;9834;48.076;11.878;2023-02-01T09:32:14;1.63;;;1.33;;
19396;SDS011;9834;48.076;11.878;2023-02-01T09:34:43;1.90;;;1.43;;
19396;SDS011;9834;48.076;11.878;2023-02-01T09:37:10;2.23;;;1.73;;
19396;SDS011;9834;48.076;11.878;2023-02-01T09:39:37;2.07;;;1.30;;
19396;SDS011;9834;48.076;11.878;2023-02-01T09:42:07;2.10;;;1.40;;
19396;SDS011;9834;48.076;11.878;2023-02-01T09:44:47;1.93;;;1.23;;
19396;SDS011;9834;48.076;11.878;2023-02-01T09:47:32;2.77;;;1.43;;
19396;SDS011;9834;48.076;11.878;2023-02-01T09:50:04;1.20;;;1.07;;
19396;SDS011;9834;48.076;11.878;2023-02-01T09:52:34;1.80;;;1.20;;
19396;SDS011;9834;48.076;11.878;2023-02-01T09:55:07;7.80;;;1.60;;
19396;SDS011;9834;48.076;11.878;2023-02-01T09:57:43;1.23;;;1.10;;
19396;SDS011;9834;48.076;11.878;2023-02-01T10:00:18;1.57;;;1.27;;
19396;SDS011;9834;48.076;11.878;2023-02-01T10:02:48;2.83;;;1.23;;
19396;SDS011;9834;48.076;11.878;2023-02-01T10:05:19;0.87;;;0.87;;
19396;SDS011;9834;48.076;11.878;2023-02-01T10:07:57;1.37;;;0.97;;
19396;SDS011;9834;48.076;11.878;2023-02-01T10:10:30;2.40;;;1.60;;
19396;SDS011;9834;48.076;11.878;2023-02-01T10:13:08;2.27;;;1.17;;
19396;SDS011;9834;48.076;11.878;2023-02-01T10:16:00;0.93;;;0.90;;
19396;SDS011;9834;48.076;11.878;2023-02-01T10:18:45;1.20;;;1.10;;
19396;SDS011;9834;48.076;11.878;2023-02-01T10:21:29;2.03;;;1.10;;
19396;SDS011;9834;48.076;11.878;2023-02-01T10:24:12;1.77;;;1.30;;
19396;SDS011;9834;48.076;11.878;2023-02-01T10:26:51;1.00;;;0.90;;
19396;SDS011;9834;48.076;11.878;2023-02-01T10:29:24;1.47;;;1.37;;
19396;SDS011;9834;48.076;11.878;2023-02-01T10:31:56;2.37;;;1.17;;
19396;SDS011;9834;48.076;11.878;2023-02-01T10:34:24;0.67;;;0.67;;
19396;SDS011;9834;48.076;11.878;2023-02-01T10:36:55;1.80;;;1.43;;
19396;SDS011;9834;48.076;11.878;2023-02-01T10:39:26;1.40;;;1.23;;
19396;SDS011;9834;48.076;11.878;2023-02-01T10:41:54;1.40;;;1.30;;
19396;SDS011;9834;48.076;11.878;2023-02-01T10:44:23;1.00;;;0.83;;
19396;SDS011;9834;48.076;11.878;2023-02-01T10:46:53;5.57;;;1.20;;
19396;SDS011;9834;48.076;11.878;2023-02-01T10:49:20;1.37;;;1.27;;
19396;SDS011;9834;48.076;11.878;2023-02-01T10:51:54;2.03;;;1.43;;
19396;SDS011;9834;48.076;11.878;2023-02-01T10:54:32;1.67;;;1.00;;
19396;SDS011;9834;48.076;11.878;2023-02-01T10:57:00;0.97;;;0.90;;
19396;SDS011;9834;48.076;11.878;2023-02-01T10:59:28;1.30;;;1.20;;
19396;SDS011;9834;48.076;11.878;2023-02-01T11:01:58;0.93;;;0.93;;
19396;SDS011;9834;48.076;11.878;2023-02-01T11:04:36;1.90;;;1.33;;
19396;SDS011;9834;48.076;11.878;2023-02-01T11:07:06;1.43;;;1.20;;
19396;SDS011;9834;48.076;11.878;2023-02-01T11:09:35;1.10;;;1.00;;
19396;SDS011;9834;48.076;11.878;2023-02-01T11:12:10;2.63;;;1.70;;
19396;SDS011;9834;48.076;11.878;2023-02-01T11:14:50;2.17;;;1.37;;
19396;SDS011;9834;48.076;11.878;2023-02-01T11:17:21;0.70;;;0.70;;
19396;SDS011;9834;48.076;11.878;2023-02-01T11:19:56;1.27;;;1.17;;
19396;SDS011;9834;48.076;11.878;2023-02-01T11:22:27;3.20;;;1.50;;
19396;SDS011;9834;48.076;11.878;2023-02-01T11:24:55;4.23;;;1.63;;
19396;SDS011;9834;48.076;11.878;2023-02-01T11:27:23;1.50;;;1.03;;
19396;SDS011;9834;48.076;11.878;2023-02-01T11:29:53;1.60;;;1.50;;
19396;SDS011;9834;48.076;11.878;2023-02-01T11:32:23;1.33;;;1.23;;
19396;SDS011;9834;48.076;11.878;2023-02-01T11:34:52;3.97;;;1.33;;
19396;SDS011;9834;48.076;11.878;2023-02-01T11:37:23;1.70;;;1.33;;
19396;SDS011;9834;48.076;11.878;2023-02-01T11:39:55;1.47;;;1.17;;
19396;SDS011;9834;48.076;11.878;2023-02-01T11:42:23;2.43;;;1.20;;
19396;SDS011;9834;48.076;11.878;2023-02-01T11:44:51;1.43;;;1.33;;
19396;SDS011;9834;48.076;11.878;2023-02-01T11:47:42;1.73;;;1.37;;
19396;SDS011;9834;48.076;11.878;2023-02-01T11:50:12;4.07;;;2.00;;
19396;SDS011;9834;48.076;11.878;2023-02-01T11:52:57;4.20;;;1.87;;
19396;SDS011;9834;48.076;11.878;2023-02-01T11:55:38;2.60;;;1.50;;
19396;SDS011;9834;48.076;11.878;2023-02-01T11:58:28;2.17;;;1.80;;
19396;SDS011;9834;48.076;11.878;2023-02-01T12:01:23;3.07;;;1.40;;
19396;SDS011;9834;48.076;11.878;2023-02-01T12:04:04;1.60;;;1.50;;
19396;SDS011;9834;48.076;11.878;2023-02-01T12:06:51;2.07;;;1.60;;
19396;SDS011;9834;48.076;11.878;2023-02-01T12:09:28;3.57;;;2.07;;
19396;SDS011;9834;48.076;11.878;2023-02-01T12:12:07;2.97;;;2.07;;
19396;SDS011;9834;48.076;11.878;2023-02-01T12:14:40;2.60;;;1.50;;
19396;SDS011;9834;48.076;11.878;2023-02-01T12:17:32;3.63;;;1.80;;
19396;SDS011;9834;48.076;11.878;2023-02-01T12:20:11;4.13;;;2.13;;
19396;SDS011;9834;48.076;11.878;2023-02-01T12:22:52;2.80;;;1.83;;
19396;SDS011;9834;48.076;11.878;2023-02-01T12:25:32;1.73;;;1.50;;
19396;SDS011;9834;48.076;11.878;2023-02-01T12:28:20;1.57;;;1.47;;
19396;SDS011;9834;48.076;11.878;2023-02-01T12:31:15;2.47;;;2.10;;
19396;SDS011;9834;48.076;11.878;2023-02-01T12:33:56;2.47;;;2.00;;
19396;SDS011;9834;48.076;11.878;2023-02-01T12:36:34;2.27;;;1.47;;
19396;SDS011;9834;48.076;11.878;2023-02-01T12:39:11;2.00;;;1.83;;
19396;SDS011;9834;48.076;11.878;2023-02-01T12:41:50;3.63;;;1.93;;
19396;SDS011;9834;48.076;11.878;2023-02-01T12:44:29;1.60;;;1.50;;
19396;SDS011;9834;48.076;11.878;2023-02-01T12:47:03;2.03;;;1.47;;
19396;SDS011;9834;48.076;11.878;2023-02-01T12:49:40;1.93;;;1.70;;
19396;SDS011;9834;48.076;11.878;2023-02-01T12:52:13;2.87;;;1.40;;
19396;SDS011;9834;48.076;11.878;2023-02-01T12:54:45;2.30;;;1.80;;
19396;SDS011;9834;48.076;11.878;2023-02-01T12:57:20;2.20;;;1.83;;
19396;SDS011;9834;48.076;11.878;2023-02-01T12:59:51;1.93;;;1.37;;
19396;SDS011;9834;48.076;11.878;2023-02-01T13:02:25;2.83;;;1.70;;
19396;SDS011;9834;48.076;11.878;2023-02-01T13:04:59;2.30;;;2.00;;
19396;SDS011;9834;48.076;11.878;2023-02-01T13:07:31;2.60;;;2.10;;
19396;SDS011;9834;48.076;11.878;2023-02-01T13:10:12;2.30;;;1.60;;
19396;SDS011;9834;48.076;11.878;2023-02-01T13:12:44;4.70;;;1.67;;
19396;SDS011;9834;48.076;11.878;2023-02-01T13:15:20;1.90;;;1.23;;
19396;SDS011;9834;48.076;11.878;2023-02-01T13:17:51;4.80;;;1.67;;
19396;SDS011;9834;48.076;11.878;2023-02-01T13:20:21;5.60;;;1.87;;
19396;SDS011;9834;48.076;11.878;2023-02-01T13:22:54;2.13;;;1.80;;
19396;SDS011;9834;48.076;11.878;2023-02-01T13:25:29;6.47;;;1.50;;
19396;SDS011;9834;48.076;11.878;2023-02-01T13:28:04;5.70;;;2.03;;
19396;SDS011;9834;48.076;11.878;2023-02-01T13:30:41;1.63;;;1.30;;
19396;SDS011;9834;48.076;11.878;2023-02-01T13:33:25;1.70;;;1.30;;
19396;SDS011;9834;48.076;11.878;2023-02-01T13:42:23;1.90;;;1.60;;
19396;SDS011;9834;48.076;11.878;2023-02-01T13:45:02;2.20;;;1.67;;
19396;SDS011;9834;48.076;11.878;2023-02-01T13:47:32;2.03;;;1.20;;
19396;SDS011;9834;48.076;11.878;2023-02-01T13:50:03;4.80;;;1.73;;
19396;SDS011;9834;48.076;11.878;2023-02-01T13:52:39;3.17;;;2.00;;
19396;SDS011;9834;48.076;11.878;2023-02-01T13:58:05;3.57;;;1.47;;
19396;SDS011;9834;48.076;11.878;2023-02-01T14:00:41;2.30;;;1.60;;
19396;SDS011;9834;48.076;11.878;2023-02-01T14:03:11;1.70;;;1.60;;
19396;SDS011;9834;48.076;11.878;2023-02-01T14:05:57;1.60;;;1.50;;
19396;SDS011;9834;48.076;11.878;2023-02-01T14:08:39;3.03;;;1.60;;
19396;SDS011;9834;48.076;11.878;2023-02-01T14:11:32;3.10;;;1.97;;
19396;SDS011;9834;48.076;11.878;2023-02-01T14:23:29;1.90;;;1.13;;
19396;SDS011;9834;48.076;11.878;2023-02-01T14:26:06;2.07;;;1.43;;
19396;SDS011;9834;48.076;11.878;2023-02-01T14:28:40;3.17;;;1.70;;
19396;SDS011;9834;48.076;11.878;2023-02-01T14:31:14;4.10;;;2.23;;
19396;SDS011;9834;48.076;11.878;2023-02-01T14:34:04;2.00;;;1.53;;
19396;SDS011;9834;48.076;11.878;2023-02-01T14:36:44;4.73;;;1.77;;
19396;SDS011;9834;48.076;11.878;2023-02-01T14:39:26;1.60;;;1.50;;
19396;SDS011;9834;48.076;11.878;2023-02-01T14:42:12;5.30;;;2.07;;
19396;SDS011;9834;48.076;11.878;2023-02-01T14:44:46;1.90;;;1.40;;
19396;SDS011;9834;48.076;11.878;2023-02-01T14:47:26;1.20;;;1.10;;
19396;SDS011;9834;48.076;11.878;2023-02-01T14:52:58;2.20;;;1.23;;
19396;SDS011;9834;48.076;11.878;2023-02-01T14:55:44;2.23;;;1.40;;
19396;SDS011;9834;48.076;11.878;2023-02-01T14:58:15;1.53;;;1.40;;
19396;SDS011;9834;48.076;11.878;2023-02-01T15:00:47;1.80;;;1.20;;
19396;SDS011;9834;48.076;11.878;2023-02-01T15:03:21;2.73;;;1.37;;
19396;SDS011;9834;48.076;11.878;2023-02-01T15:06:02;2.60;;;1.50;;
19396;SDS011;9834;48.076;11.878;2023-02-01T15:08:32;1.57;;;1.47;;
19396;SDS011;9834;48.076;11.878;2023-02-01T15:11:02;3.83;;;1.60;;
19396;SDS011;9834;48.076;11.878;2023-02-01T15:13:32;1.90;;;1.43;;
19396;SDS011;9834;48.076;11.878;2023-02-01T15:16:00;1.40;;;1.30;;
19396;SDS011;9834;48.076;11.878;2023-02-01T15:18:30;2.53;;;1.50;;
19396;SDS011;9834;48.076;11.878;2023-02-01T15:20:59;1.53;;;1.40;;
19396;SDS011;9834;48.076;11.878;2023-02-01T15:23:32;1.30;;;1.20;;
19396;SDS011;9834;48.076;11.878;2023-02-01T15:25:59;1.90;;;1.40;;
19396;SDS011;9834;48.076;11.878;2023-02-01T15:28:26;2.77;;;1.73;;
19396;SDS011;9834;48.076;11.878;2023-02-01T15:30:57;3.53;;;1.47;;
19396;SDS011;9834;48.076;11.878;2023-02-01T15:33:25;1.53;;;1.20;;
19396;SDS011;9834;48.076;11.878;2023-02-01T15:35:54;1.50;;;1.40;;
19396;SDS011;9834;48.076;11.878;2023-02-01T15:38:33;2.20;;;1.47;;
19396;SDS011;9834;48.076;11.878;2023-02-01T15:41:03;1.37;;;1.27;;
19396;SDS011;9834;48.076;11.878;2023-02-01T15:43:33;1.83;;;1.47;;
19396;SDS011;9834;48.076;11.878;2023-02-01T15:46:03;1.87;;;1.60;;